Time;durP1;ratioP1;P1;durP2;ratioP2;P2;SDS_P1;SDS_P2;PMS_P1;PMS_P2;Temp;Humidity;BMP_temperature;BMP_pressure;BME280_temperature;BME280_humidity;BME280_pressure;Samples;Min_cycle;Max_cycle;Signal;HPM_P1;HPM_P2
2022/01/10 00:00:22;;;;;;;4.68;2.03;;;;;;;;;;5022126;28;92921;-62
2022/01/10 00:02:51;;;;;;;2.97;1.98;;;;;;;;;;5012628;28;92522;-62
2022/01/10 00:05:18;;;;;;;3.03;1.85;;;;;;;;;;5012754;28;91735;-62
2022/01/10 00:07:44;;;;;;;4.50;2.25;;;;;;;;;;5019451;28;92575;-62
2022/01/10 00:10:11;;;;;;;4.00;2.17;;;;;;;;;;5023716;28;92579;-62
2022/01/10 00:12:37;;;;;;;2.83;2.20;;;;;;;;;;5010997;28;95307;-61
2022/01/10 00:15:04;;;;;;;4.28;2.38;;;;;;;;;;5012683;28;94667;-62
2022/01/10 00:17:30;;;;;;;2.83;2.03;;;;;;;;;;5016742;28;92435;-62
2022/01/10 00:19:57;;;;;;;3.15;2.10;;;;;;;;;;5013247;28;92362;-62
2022/01/10 00:22:25;;;;;;;3.85;2.25;;;;;;;;;;5018842;28;93780;-62
2022/01/10 00:24:51;;;;;;;4.03;2.20;;;;;;;;;;5016375;27;92367;-62
2022/01/10 00:27:17;;;;;;;3.17;1.70;;;;;;;;;;5014714;28;92504;-62
2022/01/10 00:29:44;;;;;;;4.18;2.00;;;;;;;;;;5013365;28;93737;-62
2022/01/10 00:32:10;;;;;;;3.25;2.13;;;;;;;;;;5018478;28;92400;-62
2022/01/10 00:34:36;;;;;;;2.75;1.98;;;;;;;;;;5027025;27;92412;-62
2022/01/10 00:37:03;;;;;;;2.67;1.70;;;;;;;;;;5020662;27;94806;-62
2022/01/10 00:39:29;;;;;;;3.38;2.25;;;;;;;;;;5019049;28;95302;-62
2022/01/10 00:41:56;;;;;;;2.47;1.77;;;;;;;;;;5031725;27;93465;-62
2022/01/10 00:44:25;;;;;;;2.22;1.73;;;;;;;;;;5017049;27;92420;-62
2022/01/10 00:46:52;;;;;;;3.13;1.80;;;;;;;;;;5011983;28;94170;-62
2022/01/10 00:49:19;;;;;;;3.33;1.90;;;;;;;;;;5011666;28;93652;-62
2022/01/10 00:51:45;;;;;;;2.42;1.75;;;;;;;;;;5025233;28;92471;-62
2022/01/10 00:54:11;;;;;;;3.08;2.15;;;;;;;;;;5018185;27;92385;-62
2022/01/10 00:56:38;;;;;;;3.47;1.90;;;;;;;;;;5013061;28;92507;-62
2022/01/10 00:59:04;;;;;;;2.70;2.22;;;;;;;;;;5012901;28;93089;-61
2022/01/10 01:01:30;;;;;;;2.63;1.98;;;;;;;;;;5012273;28;94892;-62
2022/01/10 01:03:57;;;;;;;2.17;2.00;;;;;;;;;;5020734;28;92478;-61
2022/01/10 01:06:23;;;;;;;1.90;1.77;;;;;;;;;;5020525;27;93087;-62
2022/01/10 01:08:49;;;;;;;2.65;1.95;;;;;;;;;;5025609;28;93185;-62
2022/01/10 01:13:57;;;;;;;3.15;2.00;;;;;;;;;;5026446;27;92410;-62
2022/01/10 01:16:43;;;;;;;2.17;1.63;;;;;;;;;;5011335;28;93314;-62
2022/01/10 01:24:28;;;;;;;3.45;1.98;;;;;;;;;;5021789;27;92938;-61
2022/01/10 01:26:54;;;;;;;2.08;1.67;;;;;;;;;;5015910;27;94928;-61
2022/01/10 01:29:22;;;;;;;1.80;1.60;;;;;;;;;;5014000;27;93768;-62
2022/01/10 01:31:49;;;;;;;1.95;1.58;;;;;;;;;;5031537;27;92521;-62
2022/01/10 01:34:16;;;;;;;3.03;1.80;;;;;;;;;;5013668;27;92444;-62
2022/01/10 01:36:46;;;;;;;2.47;1.95;;;;;;;;;;5018307;28;93318;-61
2022/01/10 01:39:23;;;;;;;3.13;1.90;;;;;;;;;;5015387;28;92909;-61
2022/01/10 01:41:53;;;;;;;3.10;2.03;;;;;;;;;;5014919;28;92541;-62
2022/01/10 01:44:20;;;;;;;1.90;1.75;;;;;;;;;;5015415;28;91999;-62
2022/01/10 01:46:46;;;;;;;2.17;1.83;;;;;;;;;;5015977;28;93080;-62
2022/01/10 01:49:13;;;;;;;2.70;1.60;;;;;;;;;;5015823;27;92470;-62
2022/01/10 01:51:39;;;;;;;2.25;1.88;;;;;;;;;;5021730;28;94941;-62
2022/01/10 01:54:06;;;;;;;3.20;2.00;;;;;;;;;;5014190;28;94026;-61
2022/01/10 01:56:33;;;;;;;3.85;2.13;;;;;;;;;;5021258;28;93879;-62
2022/01/10 01:58:59;;;;;;;2.95;1.70;;;;;;;;;;5013487;27;92774;-62
2022/01/10 02:01:26;;;;;;;2.58;1.80;;;;;;;;;;5023460;28;93219;-63
2022/01/10 02:03:52;;;;;;;1.50;1.40;;;;;;;;;;5017528;27;92443;-62
2022/01/10 02:06:19;;;;;;;2.38;1.98;;;;;;;;;;5021353;28;94495;-62
2022/01/10 02:08:46;;;;;;;1.90;1.67;;;;;;;;;;5014353;28;91852;-62
2022/01/10 02:11:13;;;;;;;2.40;1.80;;;;;;;;;;5021439;28;93374;-62
2022/01/10 02:13:39;;;;;;;3.20;1.65;;;;;;;;;;5024826;27;94585;-62
2022/01/10 02:16:08;;;;;;;2.10;1.70;;;;;;;;;;5013120;28;95370;-62
2022/01/10 02:18:35;;;;;;;3.10;1.90;;;;;;;;;;5014103;28;92709;-62
2022/01/10 02:21:05;;;;;;;1.92;1.73;;;;;;;;;;5029066;28;92481;-62
2022/01/10 02:23:32;;;;;;;3.25;2.20;;;;;;;;;;5020305;27;92397;-62
2022/01/10 02:25:58;;;;;;;1.70;1.58;;;;;;;;;;5014103;28;92918;-62
2022/01/10 02:28:25;;;;;;;2.28;1.55;;;;;;;;;;5014478;28;92414;-62
2022/01/10 02:30:56;;;;;;;1.88;1.75;;;;;;;;;;5016763;28;92489;-62
2022/01/10 02:33:23;;;;;;;2.08;1.58;;;;;;;;;;5023884;28;93270;-62
2022/01/10 02:36:05;;;;;;;1.60;1.50;;;;;;;;;;5014131;28;92717;-62
2022/01/10 02:38:32;;;;;;;1.63;1.42;;;;;;;;;;5013458;28;92432;-61
2022/01/10 02:40:59;;;;;;;2.17;1.80;;;;;;;;;;5012425;28;94833;-62
2022/01/10 02:43:25;;;;;;;2.25;1.90;;;;;;;;;;5015942;28;93157;-62
2022/01/10 02:45:53;;;;;;;1.88;1.52;;;;;;;;;;5013777;28;93118;-62
2022/01/10 02:48:20;;;;;;;1.50;1.38;;;;;;;;;;5013994;28;93478;-62
2022/01/10 02:50:46;;;;;;;1.58;1.45;;;;;;;;;;5018548;28;92359;-62
2022/01/10 02:53:12;;;;;;;1.83;1.50;;;;;;;;;;5019497;28;92941;-62
2022/01/10 02:55:39;;;;;;;3.42;1.70;;;;;;;;;;5005692;28;93508;-62
2022/01/10 02:58:05;;;;;;;2.15;1.50;;;;;;;;;;5010252;28;91685;-62
2022/01/10 03:00:31;;;;;;;2.22;1.90;;;;;;;;;;5015382;28;92702;-62
2022/01/10 03:02:59;;;;;;;1.67;1.52;;;;;;;;;;5023722;27;94488;-62
2022/01/10 03:05:25;;;;;;;1.67;1.38;;;;;;;;;;5011966;28;94780;-62
2022/01/10 03:07:53;;;;;;;1.95;1.50;;;;;;;;;;5028121;28;92456;-62
2022/01/10 03:10:19;;;;;;;2.20;1.70;;;;;;;;;;5013675;28;92453;-62
2022/01/10 03:12:45;;;;;;;1.65;1.50;;;;;;;;;;5021383;28;92410;-62
2022/01/10 03:15:12;;;;;;;2.15;1.45;;;;;;;;;;5013035;27;93242;-62
2022/01/10 03:17:39;;;;;;;1.70;1.40;;;;;;;;;;5012967;28;92465;-62
2022/01/10 03:20:06;;;;;;;2.70;1.70;;;;;;;;;;5019326;27;92527;-62
2022/01/10 03:22:32;;;;;;;1.77;1.67;;;;;;;;;;5015368;27;92339;-62
2022/01/10 03:24:59;;;;;;;3.10;1.50;;;;;;;;;;5016398;28;92706;-62
2022/01/10 03:27:25;;;;;;;2.67;1.33;;;;;;;;;;5016577;28;94100;-62
2022/01/10 03:29:52;;;;;;;1.67;1.58;;;;;;;;;;5019784;27;94784;-62
2022/01/10 03:32:19;;;;;;;1.63;1.45;;;;;;;;;;5032842;28;95302;-62
2022/01/10 03:34:45;;;;;;;2.35;1.50;;;;;;;;;;5029597;27;93468;-62
2022/01/10 03:37:12;;;;;;;1.40;1.30;;;;;;;;;;5013704;27;93273;-62
2022/01/10 03:39:38;;;;;;;1.50;1.33;;;;;;;;;;5011778;28;92580;-62
2022/01/10 03:42:05;;;;;;;2.10;1.45;;;;;;;;;;5025278;28;93474;-62
2022/01/10 03:44:31;;;;;;;1.70;1.60;;;;;;;;;;5023751;27;92463;-62
2022/01/10 03:46:57;;;;;;;1.73;1.50;;;;;;;;;;5032600;28;93018;-62
2022/01/10 03:49:24;;;;;;;1.50;1.20;;;;;;;;;;5011908;28;92541;-62
2022/01/10 03:51:50;;;;;;;3.15;1.88;;;;;;;;;;5013355;28;92327;-62
2022/01/10 03:54:17;;;;;;;2.05;1.33;;;;;;;;;;5011033;28;96004;-62
2022/01/10 03:56:43;;;;;;;1.50;1.40;;;;;;;;;;5018114;28;92212;-62
2022/01/10 03:59:10;;;;;;;1.90;1.60;;;;;;;;;;5012905;27;93276;-62
2022/01/10 04:01:39;;;;;;;1.75;1.30;;;;;;;;;;5018856;28;93498;-62
2022/01/10 04:04:05;;;;;;;1.33;1.20;;;;;;;;;;5011738;28;92423;-62
2022/01/10 04:06:32;;;;;;;2.33;1.50;;;;;;;;;;5012531;28;92890;-62
2022/01/10 04:08:58;;;;;;;1.73;1.40;;;;;;;;;;5014277;28;92368;-62
2022/01/10 04:11:24;;;;;;;2.42;1.42;;;;;;;;;;5012419;28;91809;-62
2022/01/10 04:13:51;;;;;;;1.60;1.42;;;;;;;;;;5016039;28;92481;-62
2022/01/10 04:16:17;;;;;;;1.40;1.30;;;;;;;;;;5023332;28;92454;-62
2022/01/10 04:18:43;;;;;;;2.15;1.60;;;;;;;;;;5011661;28;94838;-62
2022/01/10 04:21:09;;;;;;;2.47;1.40;;;;;;;;;;5015159;28;92375;-62
2022/01/10 04:23:36;;;;;;;1.73;1.35;;;;;;;;;;5010707;28;92505;-62
2022/01/10 04:26:02;;;;;;;2.08;1.50;;;;;;;;;;5002183;28;93119;-62
2022/01/10 04:28:29;;;;;;;1.50;1.33;;;;;;;;;;5011381;28;93927;-62
2022/01/10 04:30:55;;;;;;;2.25;1.52;;;;;;;;;;5023771;28;92399;-62
2022/01/10 04:33:27;;;;;;;1.48;1.38;;;;;;;;;;5024244;27;94502;-62
2022/01/10 04:35:53;;;;;;;2.08;1.48;;;;;;;;;;5012652;28;91716;-62
2022/01/10 04:38:20;;;;;;;2.85;1.42;;;;;;;;;;5012162;28;92382;-62
2022/01/10 04:40:46;;;;;;;1.30;1.20;;;;;;;;;;5016768;28;92432;-62
2022/01/10 04:43:12;;;;;;;1.42;1.33;;;;;;;;;;5012861;27;94796;-62
2022/01/10 04:45:39;;;;;;;1.30;1.20;;;;;;;;;;5012021;28;95584;-62
2022/01/10 04:48:05;;;;;;;1.52;1.42;;;;;;;;;;5016265;28;93366;-62
2022/01/10 04:51:10;;;;;;;1.77;1.10;;;;;;;;;;5014514;27;92423;-61
2022/01/10 04:53:27;;;;;;;1.50;1.30;;;;;;;;;;5010216;28;92736;-62
2022/01/10 04:55:54;;;;;;;1.42;1.27;;;;;;;;;;5014509;28;92607;-62
2022/01/10 04:58:21;;;;;;;1.30;1.20;;;;;;;;;;5008564;28;93146;-62
2022/01/10 05:00:47;;;;;;;1.60;1.25;;;;;;;;;;5014592;28;92444;-62
2022/01/10 05:03:17;;;;;;;1.48;1.38;;;;;;;;;;5019040;27;92467;-62
2022/01/10 05:05:43;;;;;;;1.30;1.20;;;;;;;;;;5018357;28;92923;-62
2022/01/10 05:08:10;;;;;;;1.67;1.20;;;;;;;;;;5026511;27;96950;-62
2022/01/10 05:10:36;;;;;;;1.88;1.50;;;;;;;;;;5014812;28;92420;-62
2022/01/10 05:13:02;;;;;;;1.52;1.42;;;;;;;;;;5022195;28;93218;-62
2022/01/10 05:15:28;;;;;;;1.52;1.30;;;;;;;;;;5015156;28;92741;-62
2022/01/10 05:17:55;;;;;;;2.65;1.10;;;;;;;;;;5016201;28;93127;-62
2022/01/10 05:20:21;;;;;;;1.00;0.93;;;;;;;;;;5016137;28;92888;-62
2022/01/10 05:22:47;;;;;;;4.22;1.30;;;;;;;;;;5024371;28;92570;-62
2022/01/10 05:25:14;;;;;;;1.30;1.20;;;;;;;;;;5014182;28;94207;-62
2022/01/10 05:27:40;;;;;;;1.42;1.00;;;;;;;;;;5019993;28;92379;-62
2022/01/10 05:30:07;;;;;;;1.25;1.10;;;;;;;;;;5019282;28;92307;-62
2022/01/10 05:32:33;;;;;;;1.65;1.35;;;;;;;;;;5006488;28;94825;-62
2022/01/10 05:34:59;;;;;;;1.20;1.10;;;;;;;;;;5018403;28;93255;-62
2022/01/10 05:37:26;;;;;;;1.77;1.15;;;;;;;;;;5031009;27;92509;-62
2022/01/10 05:39:52;;;;;;;1.33;1.17;;;;;;;;;;5022205;27;92428;-62
2022/01/10 05:42:20;;;;;;;1.55;1.38;;;;;;;;;;5014744;28;92536;-62
2022/01/10 05:44:46;;;;;;;1.60;1.38;;;;;;;;;;5014833;28;92879;-62
2022/01/10 05:47:12;;;;;;;1.63;1.08;;;;;;;;;;5015242;28;93446;-62
2022/01/10 05:49:46;;;;;;;1.30;1.20;;;;;;;;;;5015418;28;91855;-62
2022/01/10 05:52:13;;;;;;;1.17;1.08;;;;;;;;;;5012923;28;92509;-62
2022/01/10 05:54:39;;;;;;;2.03;1.50;;;;;;;;;;5026001;27;92391;-62
2022/01/10 05:57:06;;;;;;;1.17;1.08;;;;;;;;;;5012092;28;94941;-62
2022/01/10 05:59:32;;;;;;;1.17;1.08;;;;;;;;;;5016913;28;93465;-62
2022/01/10 06:01:59;;;;;;;1.67;1.17;;;;;;;;;;5020733;28;93277;-62
2022/01/10 06:04:25;;;;;;;1.30;1.10;;;;;;;;;;5013783;28;93098;-62
2022/01/10 06:06:51;;;;;;;1.40;1.25;;;;;;;;;;5013451;28;92443;-62
2022/01/10 06:09:18;;;;;;;2.40;1.00;;;;;;;;;;5014360;28;92589;-62
2022/01/10 06:11:45;;;;;;;1.35;1.00;;;;;;;;;;5015530;28;92800;-62
2022/01/10 06:14:11;;;;;;;1.02;0.95;;;;;;;;;;5033057;27;91828;-61
2022/01/10 06:16:38;;;;;;;2.13;1.35;;;;;;;;;;5014503;28;92613;-61
2022/01/10 06:19:04;;;;;;;1.65;1.02;;;;;;;;;;5017284;28;94182;-62
2022/01/10 06:21:30;;;;;;;1.48;1.10;;;;;;;;;;5011263;28;94832;-62
2022/01/10 06:23:57;;;;;;;1.20;1.00;;;;;;;;;;5018198;27;97712;-62
2022/01/10 06:26:23;;;;;;;1.45;1.20;;;;;;;;;;5014053;28;93458;-62
2022/01/10 06:28:49;;;;;;;1.45;1.35;;;;;;;;;;5013541;28;92508;-62
2022/01/10 06:31:16;;;;;;;2.08;1.30;;;;;;;;;;5013761;28;94113;-62
2022/01/10 06:33:42;;;;;;;1.10;1.02;;;;;;;;;;5028075;28;92541;-62
2022/01/10 06:36:09;;;;;;;1.95;1.13;;;;;;;;;;5017719;27;92350;-62
2022/01/10 06:38:35;;;;;;;1.67;1.30;;;;;;;;;;5030229;28;91682;-62
2022/01/10 06:41:02;;;;;;;1.45;1.20;;;;;;;;;;5016628;27;92414;-62
2022/01/10 06:43:28;;;;;;;1.45;1.23;;;;;;;;;;5012626;28;92764;-62
2022/01/10 06:45:54;;;;;;;1.25;0.90;;;;;;;;;;5011626;28;95249;-61
2022/01/10 06:48:21;;;;;;;0.90;0.90;;;;;;;;;;5020542;28;92536;-62
2022/01/10 06:50:48;;;;;;;1.65;1.38;;;;;;;;;;5020953;28;92410;-62
2022/01/10 06:53:15;;;;;;;1.92;1.20;;;;;;;;;;5014908;28;92812;-62
2022/01/10 06:55:41;;;;;;;1.50;1.35;;;;;;;;;;5012943;28;92419;-62
2022/01/10 06:58:07;;;;;;;1.15;1.05;;;;;;;;;;5014010;28;93050;-62
2022/01/10 07:00:34;;;;;;;2.28;1.30;;;;;;;;;;5017634;28;92499;-62
2022/01/10 07:03:00;;;;;;;1.10;1.00;;;;;;;;;;5016946;28;91596;-62
2022/01/10 07:05:28;;;;;;;1.15;1.00;;;;;;;;;;5012373;28;93464;-62
2022/01/10 07:07:55;;;;;;;1.05;1.00;;;;;;;;;;5031324;27;92831;-62
2022/01/10 07:10:21;;;;;;;3.72;1.30;;;;;;;;;;5019062;27;95284;-62
2022/01/10 07:12:48;;;;;;;1.15;1.05;;;;;;;;;;5013856;28;93274;-62
2022/01/10 07:15:15;;;;;;;1.13;1.02;;;;;;;;;;5011423;28;92409;-62
2022/01/10 07:17:41;;;;;;;1.20;1.10;;;;;;;;;;5013232;28;92415;-62
2022/01/10 07:20:07;;;;;;;2.45;1.25;;;;;;;;;;5014775;28;93519;-61
2022/01/10 07:22:38;;;;;;;1.33;1.10;;;;;;;;;;5015311;28;92463;-62
2022/01/10 07:25:05;;;;;;;2.35;1.23;;;;;;;;;;5011626;28;92555;-61
2022/01/10 07:27:31;;;;;;;1.38;1.23;;;;;;;;;;5012679;28;91720;-61
2022/01/10 07:29:57;;;;;;;1.67;1.08;;;;;;;;;;5011712;28;92567;-62
2022/01/10 07:32:29;;;;;;;1.73;1.20;;;;;;;;;;5013571;28;92320;-62
2022/01/10 07:34:58;;;;;;;1.00;0.93;;;;;;;;;;5014749;28;95000;-61
2022/01/10 07:37:25;;;;;;;;;;;;;;;;;;5029626;27;92341;-61
2022/01/10 07:39:52;;;;;;;1.08;1.08;;;;;;;;;;5013652;28;124357;-62
2022/01/10 07:42:18;;;;;;;1.17;1.08;;;;;;;;;;5013084;28;92435;-62
2022/01/10 07:44:44;;;;;;;1.20;1.10;;;;;;;;;;5018245;28;92985;-62
2022/01/10 07:47:10;;;;;;;1.27;1.10;;;;;;;;;;5026679;28;92813;-61
2022/01/10 07:49:38;;;;;;;1.02;0.95;;;;;;;;;;5013122;28;93066;-60
2022/01/10 07:52:04;;;;;;;1.27;1.17;;;;;;;;;;5014050;28;92601;-60
2022/01/10 07:54:30;;;;;;;1.52;1.30;;;;;;;;;;5012667;28;92477;-62
2022/01/10 07:56:56;;;;;;;1.00;0.93;;;;;;;;;;5003612;27;92853;-62
2022/01/10 07:59:23;;;;;;;1.25;1.10;;;;;;;;;;4991847;28;97009;-62
2022/01/10 08:01:50;;;;;;;1.73;1.20;;;;;;;;;;5011343;28;92240;-62
2022/01/10 08:04:16;;;;;;;1.23;0.98;;;;;;;;;;5023134;28;94040;-62
2022/01/10 08:06:43;;;;;;;1.50;1.20;;;;;;;;;;5013805;28;94566;-62
2022/01/10 08:09:09;;;;;;;2.17;1.00;;;;;;;;;;5011461;28;94166;-62
2022/01/10 08:11:35;;;;;;;1.35;1.23;;;;;;;;;;5000919;28;92392;-62
2022/01/10 08:14:03;;;;;;;1.10;1.00;;;;;;;;;;5013285;27;92518;-62
2022/01/10 08:16:29;;;;;;;1.92;1.40;;;;;;;;;;5013447;28;91836;-62
2022/01/10 08:18:56;;;;;;;0.93;0.93;;;;;;;;;;5012300;28;92725;-62
2022/01/10 08:21:22;;;;;;;1.17;1.00;;;;;;;;;;5012618;28;93313;-61
2022/01/10 08:23:48;;;;;;;1.30;1.08;;;;;;;;;;5015902;28;94765;-62
2022/01/10 08:26:16;;;;;;;1.40;1.30;;;;;;;;;;5021355;27;93119;-62
2022/01/10 08:28:42;;;;;;;0.90;0.90;;;;;;;;;;5016173;28;92440;-62
2022/01/10 08:31:11;;;;;;;1.02;1.00;;;;;;;;;;5010836;28;93473;-62
2022/01/10 08:33:38;;;;;;;1.08;0.98;;;;;;;;;;5012295;28;92765;-62
2022/01/10 08:36:04;;;;;;;1.67;1.20;;;;;;;;;;5017173;28;92457;-61
2022/01/10 08:38:30;;;;;;;2.33;1.33;;;;;;;;;;5011714;28;92327;-62
2022/01/10 08:40:57;;;;;;;1.33;1.15;;;;;;;;;;5012252;28;91719;-64
2022/01/10 08:43:23;;;;;;;4.22;1.70;;;;;;;;;;5011600;28;92306;-62
2022/01/10 08:45:49;;;;;;;2.10;1.20;;;;;;;;;;5015535;28;92402;-61
2022/01/10 08:48:16;;;;;;;1.38;1.25;;;;;;;;;;5014288;27;94811;-61
2022/01/10 08:50:42;;;;;;;5.97;1.33;;;;;;;;;;5014897;28;94235;-61
2022/01/10 08:53:09;;;;;;;4.25;1.70;;;;;;;;;;5012009;28;92421;-63
2022/01/10 08:55:35;;;;;;;4.75;2.20;;;;;;;;;;5012450;28;93271;-63
2022/01/10 08:58:02;;;;;;;2.80;2.03;;;;;;;;;;5024361;28;92561;-61
2022/01/10 09:00:29;;;;;;;4.22;2.10;;;;;;;;;;5020632;27;92358;-61
2022/01/10 09:02:55;;;;;;;7.63;1.85;;;;;;;;;;5011631;28;93094;-61
2022/01/10 09:05:21;;;;;;;6.28;2.00;;;;;;;;;;5013240;28;92423;-61
2022/01/10 09:07:48;;;;;;;2.63;1.80;;;;;;;;;;5012816;28;92444;-61
2022/01/10 09:10:15;;;;;;;3.78;1.90;;;;;;;;;;5033097;27;93161;-66
2022/01/10 09:12:41;;;;;;;4.78;2.05;;;;;;;;;;5012973;28;95196;-63
2022/01/10 09:15:08;;;;;;;3.55;2.40;;;;;;;;;;5003912;28;94260;-62
2022/01/10 09:17:34;;;;;;;8.00;2.03;;;;;;;;;;5005945;28;92541;-62
2022/01/10 09:20:01;;;;;;;2.78;2.25;;;;;;;;;;5011575;28;92426;-62
2022/01/10 09:22:27;;;;;;;2.92;2.20;;;;;;;;;;5009819;28;93037;-62
2022/01/10 09:24:53;;;;;;;7.80;2.30;;;;;;;;;;4995509;28;93472;-62
2022/01/10 09:27:20;;;;;;;3.80;2.03;;;;;;;;;;5025411;28;92500;-62
2022/01/10 09:29:46;;;;;;;2.83;1.80;;;;;;;;;;5030000;27;91816;-62
2022/01/10 09:32:13;;;;;;;4.90;2.40;;;;;;;;;;5013756;28;93541;-62
2022/01/10 09:34:39;;;;;;;4.20;2.30;;;;;;;;;;5011606;28;92730;-62
2022/01/10 09:37:05;;;;;;;10.90;2.13;;;;;;;;;;5027532;27;94877;-62
2022/01/10 09:39:32;;;;;;;5.35;2.47;;;;;;;;;;5032202;27;92344;-63
2022/01/10 09:41:59;;;;;;;3.92;2.53;;;;;;;;;;5031519;27;92451;-64
2022/01/10 09:44:25;;;;;;;5.30;2.60;;;;;;;;;;5020239;28;93236;-64
2022/01/10 09:46:51;;;;;;;5.80;2.70;;;;;;;;;;5016549;27;92599;-64
2022/01/10 09:49:18;;;;;;;18.77;3.47;;;;;;;;;;5011388;28;92425;-63
2022/01/10 09:51:45;;;;;;;5.18;2.63;;;;;;;;;;5011436;28;94467;-64
2022/01/10 09:54:11;;;;;;;6.45;2.60;;;;;;;;;;5015799;28;91623;-64
2022/01/10 09:56:38;;;;;;;6.82;3.30;;;;;;;;;;4997597;28;92405;-63
2022/01/10 09:59:06;;;;;;;4.68;2.60;;;;;;;;;;5012379;28;92498;-62
2022/01/10 10:01:32;;;;;;;5.97;2.83;;;;;;;;;;5015666;27;95284;-62
2022/01/10 10:04:00;;;;;;;4.88;2.83;;;;;;;;;;5013778;28;95277;-62
2022/01/10 10:06:28;;;;;;;9.38;2.70;;;;;;;;;;5019249;28;93962;-65
2022/01/10 10:08:58;;;;;;;3.97;2.15;;;;;;;;;;5029851;27;92473;-63
2022/01/10 10:11:45;;;;;;;5.28;2.70;;;;;;;;;;5014054;28;92403;-63
2022/01/10 10:14:13;;;;;;;3.28;2.15;;;;;;;;;;5013255;28;92641;-63
2022/01/10 10:16:46;;;;;;;3.75;2.38;;;;;;;;;;5017663;28;93352;-63
2022/01/10 10:19:13;;;;;;;6.38;2.70;;;;;;;;;;5014427;28;91677;-63
2022/01/10 10:21:39;;;;;;;5.13;2.33;;;;;;;;;;5014993;28;92459;-63
2022/01/10 10:24:07;;;;;;;6.40;2.42;;;;;;;;;;5016039;28;93496;-63
2022/01/10 10:26:33;;;;;;;5.32;2.67;;;;;;;;;;5031877;27;94852;-63
2022/01/10 10:29:00;;;;;;;10.27;2.88;;;;;;;;;;5034503;27;95642;-63
2022/01/10 10:31:28;;;;;;;8.38;2.35;;;;;;;;;;5015949;27;92477;-63
2022/01/10 10:33:55;;;;;;;3.85;2.50;;;;;;;;;;5014093;28;92305;-63
2022/01/10 10:36:21;;;;;;;3.33;2.40;;;;;;;;;;5014686;28;93960;-63
2022/01/10 10:38:48;;;;;;;15.77;2.30;;;;;;;;;;5020267;28;93384;-63
2022/01/10 10:41:14;;;;;;;4.80;2.15;;;;;;;;;;5014669;28;93292;-62
2022/01/10 10:43:41;;;;;;;5.05;2.47;;;;;;;;;;5014078;28;91558;-62
2022/01/10 10:46:12;;;;;;;3.30;2.03;;;;;;;;;;5020324;28;92359;-62
2022/01/10 10:48:39;;;;;;;5.43;2.45;;;;;;;;;;5014220;28;92781;-62
2022/01/10 10:51:06;;;;;;;3.03;2.38;;;;;;;;;;5011742;28;95894;-63
2022/01/10 10:53:32;;;;;;;6.22;3.00;;;;;;;;;;5012361;28;92471;-64
2022/01/10 10:56:00;;;;;;;10.95;2.75;;;;;;;;;;5012425;28;93130;-62
2022/01/10 10:58:31;;;;;;;4.72;2.90;;;;;;;;;;5013292;28;93425;-63
2022/01/10 11:00:58;;;;;;;3.67;2.53;;;;;;;;;;5016824;28;92342;-63
2022/01/10 11:03:25;;;;;;;4.47;2.15;;;;;;;;;;5020836;28;93454;-62
2022/01/10 11:05:54;;;;;;;8.38;2.63;;;;;;;;;;5032693;27;92453;-62
2022/01/10 11:08:21;;;;;;;6.18;2.50;;;;;;;;;;5013893;28;93091;-62
2022/01/10 11:10:52;;;;;;;11.45;2.88;;;;;;;;;;5013114;28;94359;-62
2022/01/10 11:13:21;;;;;;;7.00;2.70;;;;;;;;;;5015079;28;92486;-62
2022/01/10 11:15:47;;;;;;;4.07;2.38;;;;;;;;;;5026337;28;94870;-62
2022/01/10 11:18:15;;;;;;;7.38;2.78;;;;;;;;;;5015764;28;93382;-62
2022/01/10 11:20:43;;;;;;;7.25;2.60;;;;;;;;;;5018590;28;92495;-62
2022/01/10 11:23:29;;;;;;;4.38;2.53;;;;;;;;;;5012698;28;93556;-62
2022/01/10 11:25:58;;;;;;;3.67;2.30;;;;;;;;;;5014346;28;92399;-62
2022/01/10 11:28:25;;;;;;;4.00;2.67;;;;;;;;;;5012938;28;93297;-62
2022/01/10 11:30:53;;;;;;;5.13;2.72;;;;;;;;;;5021916;28;94817;-62
2022/01/10 11:33:21;;;;;;;3.88;2.60;;;;;;;;;;5013423;28;92419;-62
2022/01/10 11:35:51;;;;;;;6.70;2.13;;;;;;;;;;4996514;28;92423;-62
2022/01/10 11:38:18;;;;;;;5.35;2.67;;;;;;;;;;5010711;28;92357;-62
2022/01/10 11:40:46;;;;;;;7.38;2.55;;;;;;;;;;5023184;28;94784;-62
2022/01/10 11:43:28;;;;;;;3.03;2.05;;;;;;;;;;5001706;28;95111;-63
2022/01/10 11:46:13;;;;;;;4.25;2.22;;;;;;;;;;5012791;28;92482;-63
2022/01/10 11:48:58;;;;;;;4.88;2.60;;;;;;;;;;5008178;28;92425;-63
2022/01/10 11:51:31;;;;;;;4.30;2.38;;;;;;;;;;5002223;28;94497;-62
2022/01/10 11:54:01;;;;;;;5.72;2.40;;;;;;;;;;5011334;28;92582;-62
2022/01/10 11:56:29;;;;;;;6.60;2.65;;;;;;;;;;5012317;28;92484;-62
2022/01/10 11:59:14;;;;;;;2.33;2.05;;;;;;;;;;5012449;28;92765;-62
2022/01/10 12:01:42;;;;;;;3.63;2.35;;;;;;;;;;5012621;28;92668;-62
2022/01/10 12:04:08;;;;;;;3.95;2.33;;;;;;;;;;5012158;28;93199;-62
2022/01/10 12:06:35;;;;;;;2.88;1.98;;;;;;;;;;5012970;28;95180;-63
2022/01/10 12:09:02;;;;;;;2.60;2.30;;;;;;;;;;5011771;28;95449;-63
2022/01/10 12:11:29;;;;;;;3.45;2.35;;;;;;;;;;5014247;28;92470;-63
2022/01/10 12:13:58;;;;;;;3.40;2.20;;;;;;;;;;5012793;28;92372;-63
2022/01/10 12:16:24;;;;;;;3.35;2.20;;;;;;;;;;5000867;28;93439;-63
2022/01/10 12:18:50;;;;;;;4.18;2.42;;;;;;;;;;5015678;27;92523;-62
2022/01/10 12:21:17;;;;;;;6.90;2.35;;;;;;;;;;5013420;28;92358;-62
2022/01/10 12:23:44;;;;;;;5.10;2.10;;;;;;;;;;5011747;28;93151;-62
2022/01/10 12:26:10;;;;;;;2.67;2.08;;;;;;;;;;5016987;28;94253;-62
2022/01/10 12:28:37;;;;;;;4.72;2.53;;;;;;;;;;5011254;28;93270;-63
2022/01/10 12:31:04;;;;;;;3.40;2.10;;;;;;;;;;5004281;28;95831;-62
2022/01/10 12:33:30;;;;;;;4.40;2.40;;;;;;;;;;5007497;27;93034;-61
2022/01/10 12:35:57;;;;;;;3.63;2.13;;;;;;;;;;5006491;28;94503;-61
2022/01/10 12:38:24;;;;;;;3.95;2.42;;;;;;;;;;4999306;28;92521;-61
2022/01/10 12:40:51;;;;;;;2.78;1.77;;;;;;;;;;5006087;28;92540;-61
2022/01/10 12:43:17;;;;;;;4.20;2.00;;;;;;;;;;5022197;28;92428;-61
2022/01/10 12:45:44;;;;;;;16.15;2.53;;;;;;;;;;5030784;27;93627;-61
2022/01/10 12:48:11;;;;;;;3.65;2.45;;;;;;;;;;5012130;28;91745;-61
2022/01/10 12:50:38;;;;;;;4.57;2.30;;;;;;;;;;5016495;28;92316;-61
2022/01/10 12:53:05;;;;;;;3.28;1.88;;;;;;;;;;5017449;28;92410;-62
2022/01/10 12:55:31;;;;;;;5.32;2.22;;;;;;;;;;5011335;28;94909;-62
2022/01/10 12:57:57;;;;;;;2.97;2.00;;;;;;;;;;5013859;27;93248;-62
2022/01/10 13:00:24;;;;;;;3.63;2.30;;;;;;;;;;5012146;28;92412;-62
2022/01/10 13:02:50;;;;;;;3.72;2.33;;;;;;;;;;5011829;28;92792;-62
2022/01/10 13:05:17;;;;;;;4.63;2.50;;;;;;;;;;5011442;28;94439;-62
2022/01/10 13:07:44;;;;;;;2.70;2.05;;;;;;;;;;5005243;28;92469;-60
2022/01/10 13:10:18;;;;;;;5.80;2.83;;;;;;;;;;5009370;28;92560;-60
2022/01/10 13:12:54;;;;;;;6.00;2.45;;;;;;;;;;5016357;28;91725;-59
2022/01/10 13:15:21;;;;;;;6.15;2.33;;;;;;;;;;5011659;28;92452;-61
2022/01/10 13:17:51;;;;;;;3.85;2.42;;;;;;;;;;5021918;28;92566;-60
2022/01/10 13:20:22;;;;;;;7.57;2.45;;;;;;;;;;5011082;27;95031;-60
2022/01/10 13:22:49;;;;;;;11.00;2.88;;;;;;;;;;5012493;28;94021;-60
2022/01/10 13:25:16;;;;;;;13.68;2.95;;;;;;;;;;5031350;27;92602;-60
2022/01/10 13:27:50;;;;;;;7.15;2.65;;;;;;;;;;5031451;27;92539;-60
2022/01/10 13:30:18;;;;;;;4.78;2.10;;;;;;;;;;5013262;27;92634;-60
2022/01/10 13:32:46;;;;;;;7.25;2.30;;;;;;;;;;5018546;28;93272;-60
2022/01/10 13:35:14;;;;;;;9.63;2.78;;;;;;;;;;5014092;28;93178;-60
2022/01/10 13:37:45;;;;;;;9.73;2.17;;;;;;;;;;5010014;28;91792;-60
2022/01/10 13:40:14;;;;;;;5.13;2.42;;;;;;;;;;5014528;28;92521;-60
2022/01/10 13:42:42;;;;;;;5.80;2.20;;;;;;;;;;5014753;28;92392;-60
2022/01/10 13:45:12;;;;;;;5.45;2.50;;;;;;;;;;5013069;28;95941;-60
2022/01/10 13:47:51;;;;;;;7.60;2.50;;;;;;;;;;5027194;28;92624;-60
2022/01/10 13:50:19;;;;;;;6.97;2.17;;;;;;;;;;5014413;28;93198;-60
2022/01/10 13:53:05;;;;;;;2.53;1.98;;;;;;;;;;5024299;28;92428;-60
2022/01/10 13:55:33;;;;;;;4.07;2.38;;;;;;;;;;5017086;28;92345;-60
2022/01/10 13:57:59;;;;;;;5.88;2.80;;;;;;;;;;5015102;28;94093;-60
2022/01/10 14:00:28;;;;;;;5.55;2.50;;;;;;;;;;5014354;28;92584;-59
2022/01/10 14:02:55;;;;;;;5.45;2.13;;;;;;;;;;5019401;28;92098;-60
2022/01/10 14:05:24;;;;;;;8.70;2.50;;;;;;;;;;5029799;28;93605;-59
2022/01/10 14:07:51;;;;;;;4.25;2.05;;;;;;;;;;5026804;28;92407;-60
2022/01/10 14:10:18;;;;;;;5.63;2.10;;;;;;;;;;5026049;27;95183;-61
2022/01/10 14:12:44;;;;;;;5.20;2.40;;;;;;;;;;5033876;27;93357;-60
2022/01/10 14:15:11;;;;;;;9.45;2.35;;;;;;;;;;5030467;27;92365;-61
2022/01/10 14:17:37;;;;;;;8.65;2.22;;;;;;;;;;5037267;28;93318;-60
2022/01/10 14:20:04;;;;;;;8.63;2.30;;;;;;;;;;5033604;28;92402;-60
2022/01/10 14:22:31;;;;;;;15.02;3.00;;;;;;;;;;5016125;27;93152;-60
2022/01/10 14:24:57;;;;;;;7.15;2.75;;;;;;;;;;5014609;28;92400;-60
2022/01/10 14:27:24;;;;;;;6.15;2.50;;;;;;;;;;5014744;28;91764;-60
2022/01/10 14:29:50;;;;;;;11.70;2.22;;;;;;;;;;5013534;28;92378;-60
2022/01/10 14:32:17;;;;;;;3.85;1.88;;;;;;;;;;5019110;28;93282;-61
2022/01/10 14:34:43;;;;;;;6.15;1.95;;;;;;;;;;5014614;28;94891;-60
2022/01/10 14:37:09;;;;;;;3.35;2.10;;;;;;;;;;5013968;28;95532;-60
2022/01/10 14:39:36;;;;;;;10.60;2.17;;;;;;;;;;5014765;28;92451;-61
2022/01/10 14:42:02;;;;;;;6.68;2.17;;;;;;;;;;5012555;28;92512;-60
2022/01/10 14:44:28;;;;;;;5.05;2.10;;;;;;;;;;5012285;28;92933;-60
2022/01/10 14:46:55;;;;;;;4.85;2.00;;;;;;;;;;5013704;28;92026;-60
2022/01/10 14:49:21;;;;;;;4.47;1.95;;;;;;;;;;5014526;28;93356;-60
2022/01/10 14:51:47;;;;;;;4.03;1.80;;;;;;;;;;5014260;28;93088;-60